sensor_id;sensor_type;location;lat;lon;timestamp;P1;durP1;ratioP1;P2;durP2;ratioP2
71475;SDS011;59286;59.274;17.974;2022-09-17T00:00:38;0.73;;;0.30;;
71475;SDS011;59286;59.274;17.974;2022-09-17T00:03:04;4.88;;;0.40;;
71475;SDS011;59286;59.274;17.974;2022-09-17T00:05:30;0.88;;;0.30;;
71475;SDS011;59286;59.274;17.974;2022-09-17T00:07:56;0.30;;;0.30;;
71475;SDS011;59286;59.274;17.974;2022-09-17T00:10:22;0.30;;;0.30;;
71475;SDS011;59286;59.274;17.974;2022-09-17T00:12:48;0.30;;;0.25;;
71475;SDS011;59286;59.274;17.974;2022-09-17T00:15:14;0.90;;;0.30;;
71475;SDS011;59286;59.274;17.974;2022-09-17T00:17:40;1.45;;;0.25;;
71475;SDS011;59286;59.274;17.974;2022-09-17T00:20:07;0.75;;;0.30;;
71475;SDS011;59286;59.274;17.974;2022-09-17T00:22:34;0.38;;;0.22;;
71475;SDS011;59286;59.274;17.974;2022-09-17T00:25:00;0.68;;;0.20;;
71475;SDS011;59286;59.274;17.974;2022-09-17T00:27:25;1.48;;;0.30;;
71475;SDS011;59286;59.274;17.974;2022-09-17T00:29:51;0.50;;;0.30;;
71475;SDS011;59286;59.274;17.974;2022-09-17T00:32:16;0.40;;;0.40;;
71475;SDS011;59286;59.274;17.974;2022-09-17T00:34:42;0.32;;;0.30;;
71475;SDS011;59286;59.274;17.974;2022-09-17T00:37:07;0.57;;;0.40;;
71475;SDS011;59286;59.274;17.974;2022-09-17T00:39:33;0.40;;;0.35;;
71475;SDS011;59286;59.274;17.974;2022-09-17T00:41:58;0.50;;;0.40;;
71475;SDS011;59286;59.274;17.974;2022-09-17T00:44:43;0.57;;;0.30;;
71475;SDS011;59286;59.274;17.974;2022-09-17T00:52:38;1.80;;;0.47;;
71475;SDS011;59286;59.274;17.974;2022-09-17T00:55:21;3.22;;;0.30;;
71475;SDS011;59286;59.274;17.974;2022-09-17T00:57:50;1.25;;;0.28;;
71475;SDS011;59286;59.274;17.974;2022-09-17T01:00:19;0.20;;;0.20;;
71475;SDS011;59286;59.274;17.974;2022-09-17T01:02:45;0.52;;;0.30;;
71475;SDS011;59286;59.274;17.974;2022-09-17T01:05:10;1.55;;;0.30;;
71475;SDS011;59286;59.274;17.974;2022-09-17T01:13:01;0.50;;;0.20;;
71475;SDS011;59286;59.274;17.974;2022-09-17T01:15:50;2.03;;;0.30;;
71475;SDS011;59286;59.274;17.974;2022-09-17T01:23:57;0.60;;;0.22;;
71475;SDS011;59286;59.274;17.974;2022-09-17T01:29:22;1.15;;;0.40;;
71475;SDS011;59286;59.274;17.974;2022-09-17T01:31:52;0.75;;;0.40;;
71475;SDS011;59286;59.274;17.974;2022-09-17T01:34:44;0.50;;;0.43;;
71475;SDS011;59286;59.274;17.974;2022-09-17T01:40:04;1.83;;;0.20;;
71475;SDS011;59286;59.274;17.974;2022-09-17T01:42:46;1.17;;;0.30;;
71475;SDS011;59286;59.274;17.974;2022-09-17T01:45:21;0.50;;;0.40;;
71475;SDS011;59286;59.274;17.974;2022-09-17T01:48:02;0.40;;;0.30;;
71475;SDS011;59286;59.274;17.974;2022-09-17T01:50:36;1.70;;;0.35;;
71475;SDS011;59286;59.274;17.974;2022-09-17T01:53:14;1.15;;;0.30;;
71475;SDS011;59286;59.274;17.974;2022-09-17T01:55:43;2.25;;;0.50;;
71475;SDS011;59286;59.274;17.974;2022-09-17T01:58:17;0.40;;;0.40;;
71475;SDS011;59286;59.274;17.974;2022-09-17T02:00:49;1.40;;;0.40;;
71475;SDS011;59286;59.274;17.974;2022-09-17T02:03:20;0.57;;;0.50;;
71475;SDS011;59286;59.274;17.974;2022-09-17T02:05:55;2.10;;;0.38;;
71475;SDS011;59286;59.274;17.974;2022-09-17T02:08:27;1.75;;;0.50;;
71475;SDS011;59286;59.274;17.974;2022-09-17T02:11:03;1.50;;;0.40;;
71475;SDS011;59286;59.274;17.974;2022-09-17T02:13:40;0.52;;;0.40;;
71475;SDS011;59286;59.274;17.974;2022-09-17T02:16:09;1.33;;;0.40;;
71475;SDS011;59286;59.274;17.974;2022-09-17T02:19:07;0.80;;;0.50;;
71475;SDS011;59286;59.274;17.974;2022-09-17T02:27:04;1.05;;;0.40;;
71475;SDS011;59286;59.274;17.974;2022-09-17T02:29:35;1.15;;;0.50;;
71475;SDS011;59286;59.274;17.974;2022-09-17T02:32:04;0.55;;;0.40;;
71475;SDS011;59286;59.274;17.974;2022-09-17T02:34:30;0.63;;;0.50;;
71475;SDS011;59286;59.274;17.974;2022-09-17T02:36:56;0.50;;;0.50;;
71475;SDS011;59286;59.274;17.974;2022-09-17T02:39:25;1.05;;;0.50;;
71475;SDS011;59286;59.274;17.974;2022-09-17T02:47:27;1.13;;;0.43;;
71475;SDS011;59286;59.274;17.974;2022-09-17T02:52:43;0.95;;;0.45;;
71475;SDS011;59286;59.274;17.974;2022-09-17T02:55:28;0.30;;;0.30;;
71475;SDS011;59286;59.274;17.974;2022-09-17T03:00:41;0.52;;;0.50;;
71475;SDS011;59286;59.274;17.974;2022-09-17T03:03:09;1.85;;;0.50;;
71475;SDS011;59286;59.274;17.974;2022-09-17T03:05:39;0.40;;;0.40;;
71475;SDS011;59286;59.274;17.974;2022-09-17T03:08:07;2.03;;;0.40;;
71475;SDS011;59286;59.274;17.974;2022-09-17T03:10:36;0.65;;;0.40;;
71475;SDS011;59286;59.274;17.974;2022-09-17T03:13:02;2.10;;;0.40;;
71475;SDS011;59286;59.274;17.974;2022-09-17T03:15:28;0.38;;;0.32;;
71475;SDS011;59286;59.274;17.974;2022-09-17T03:17:54;1.95;;;0.50;;
71475;SDS011;59286;59.274;17.974;2022-09-17T03:20:19;0.52;;;0.47;;
71475;SDS011;59286;59.274;17.974;2022-09-17T03:22:45;0.38;;;0.38;;
71475;SDS011;59286;59.274;17.974;2022-09-17T03:25:11;0.35;;;0.35;;
71475;SDS011;59286;59.274;17.974;2022-09-17T03:27:37;0.30;;;0.30;;
71475;SDS011;59286;59.274;17.974;2022-09-17T03:30:03;0.28;;;0.28;;
71475;SDS011;59286;59.274;17.974;2022-09-17T03:32:29;0.30;;;0.30;;
71475;SDS011;59286;59.274;17.974;2022-09-17T03:34:55;0.40;;;0.40;;
71475;SDS011;59286;59.274;17.974;2022-09-17T03:37:20;0.45;;;0.30;;
71475;SDS011;59286;59.274;17.974;2022-09-17T03:39:45;1.25;;;0.45;;
71475;SDS011;59286;59.274;17.974;2022-09-17T03:42:11;1.05;;;0.30;;
71475;SDS011;59286;59.274;17.974;2022-09-17T03:44:36;1.20;;;0.30;;
71475;SDS011;59286;59.274;17.974;2022-09-17T03:47:02;0.32;;;0.32;;
71475;SDS011;59286;59.274;17.974;2022-09-17T03:49:27;0.70;;;0.40;;
71475;SDS011;59286;59.274;17.974;2022-09-17T03:51:53;0.38;;;0.38;;
71475;SDS011;59286;59.274;17.974;2022-09-17T03:54:18;0.40;;;0.40;;
71475;SDS011;59286;59.274;17.974;2022-09-17T03:56:43;5.72;;;0.50;;
71475;SDS011;59286;59.274;17.974;2022-09-17T03:59:09;0.93;;;0.35;;
71475;SDS011;59286;59.274;17.974;2022-09-17T04:01:34;0.55;;;0.35;;
71475;SDS011;59286;59.274;17.974;2022-09-17T04:04:00;0.20;;;0.20;;
71475;SDS011;59286;59.274;17.974;2022-09-17T04:06:26;0.30;;;0.30;;
71475;SDS011;59286;59.274;17.974;2022-09-17T04:08:52;0.82;;;0.30;;
71475;SDS011;59286;59.274;17.974;2022-09-17T04:11:17;1.75;;;0.40;;
71475;SDS011;59286;59.274;17.974;2022-09-17T04:13:43;1.38;;;0.30;;
71475;SDS011;59286;59.274;17.974;2022-09-17T04:16:08;2.00;;;0.28;;
71475;SDS011;59286;59.274;17.974;2022-09-17T04:18:33;0.60;;;0.30;;
71475;SDS011;59286;59.274;17.974;2022-09-17T04:20:59;0.32;;;0.30;;
71475;SDS011;59286;59.274;17.974;2022-09-17T04:23:24;3.42;;;0.32;;
71475;SDS011;59286;59.274;17.974;2022-09-17T04:25:49;0.90;;;0.30;;
71475;SDS011;59286;59.274;17.974;2022-09-17T04:28:15;0.45;;;0.20;;
71475;SDS011;59286;59.274;17.974;2022-09-17T04:30:40;3.25;;;0.35;;
71475;SDS011;59286;59.274;17.974;2022-09-17T04:33:09;0.73;;;0.30;;
71475;SDS011;59286;59.274;17.974;2022-09-17T04:35:35;2.38;;;0.40;;
71475;SDS011;59286;59.274;17.974;2022-09-17T04:38:00;0.95;;;0.28;;
71475;SDS011;59286;59.274;17.974;2022-09-17T04:40:26;0.40;;;0.30;;
71475;SDS011;59286;59.274;17.974;2022-09-17T04:42:52;1.52;;;0.30;;
71475;SDS011;59286;59.274;17.974;2022-09-17T04:45:19;1.27;;;0.30;;
71475;SDS011;59286;59.274;17.974;2022-09-17T04:47:45;1.35;;;0.43;;
71475;SDS011;59286;59.274;17.974;2022-09-17T04:50:10;0.68;;;0.20;;
71475;SDS011;59286;59.274;17.974;2022-09-17T04:52:36;0.93;;;0.20;;
71475;SDS011;59286;59.274;17.974;2022-09-17T04:55:06;0.47;;;0.30;;
71475;SDS011;59286;59.274;17.974;2022-09-17T04:57:32;1.65;;;0.30;;
71475;SDS011;59286;59.274;17.974;2022-09-17T04:59:57;1.55;;;0.28;;
71475;SDS011;59286;59.274;17.974;2022-09-17T05:02:22;1.55;;;0.30;;
71475;SDS011;59286;59.274;17.974;2022-09-17T05:04:48;0.40;;;0.30;;
71475;SDS011;59286;59.274;17.974;2022-09-17T05:07:14;0.38;;;0.25;;
71475;SDS011;59286;59.274;17.974;2022-09-17T05:09:40;1.45;;;0.40;;
71475;SDS011;59286;59.274;17.974;2022-09-17T05:12:05;0.60;;;0.20;;
71475;SDS011;59286;59.274;17.974;2022-09-17T05:14:31;0.30;;;0.30;;
71475;SDS011;59286;59.274;17.974;2022-09-17T05:16:56;1.40;;;0.20;;
71475;SDS011;59286;59.274;17.974;2022-09-17T05:19:22;0.77;;;0.30;;
71475;SDS011;59286;59.274;17.974;2022-09-17T05:21:47;0.85;;;0.30;;
71475;SDS011;59286;59.274;17.974;2022-09-17T05:24:12;1.23;;;0.30;;
71475;SDS011;59286;59.274;17.974;2022-09-17T05:26:38;1.15;;;0.50;;
71475;SDS011;59286;59.274;17.974;2022-09-17T05:29:03;0.32;;;0.30;;
71475;SDS011;59286;59.274;17.974;2022-09-17T05:31:29;1.42;;;0.30;;
71475;SDS011;59286;59.274;17.974;2022-09-17T05:33:56;0.22;;;0.20;;
71475;SDS011;59286;59.274;17.974;2022-09-17T05:36:22;2.13;;;0.35;;
71475;SDS011;59286;59.274;17.974;2022-09-17T05:38:47;0.30;;;0.30;;
71475;SDS011;59286;59.274;17.974;2022-09-17T05:41:12;0.65;;;0.30;;
71475;SDS011;59286;59.274;17.974;2022-09-17T05:43:38;1.00;;;0.22;;
71475;SDS011;59286;59.274;17.974;2022-09-17T05:46:04;0.32;;;0.30;;
71475;SDS011;59286;59.274;17.974;2022-09-17T05:48:30;1.73;;;0.43;;
71475;SDS011;59286;59.274;17.974;2022-09-17T05:50:56;2.10;;;0.40;;
71475;SDS011;59286;59.274;17.974;2022-09-17T05:53:22;1.15;;;0.20;;
71475;SDS011;59286;59.274;17.974;2022-09-17T05:55:47;1.17;;;0.30;;
71475;SDS011;59286;59.274;17.974;2022-09-17T05:58:13;1.13;;;0.20;;
71475;SDS011;59286;59.274;17.974;2022-09-17T06:00:40;2.88;;;0.20;;
71475;SDS011;59286;59.274;17.974;2022-09-17T06:03:09;0.57;;;0.13;;
71475;SDS011;59286;59.274;17.974;2022-09-17T06:05:35;0.57;;;0.17;;
71475;SDS011;59286;59.274;17.974;2022-09-17T06:08:01;1.25;;;0.30;;
71475;SDS011;59286;59.274;17.974;2022-09-17T06:10:27;0.15;;;0.15;;
71475;SDS011;59286;59.274;17.974;2022-09-17T06:12:57;1.40;;;0.30;;
71475;SDS011;59286;59.274;17.974;2022-09-17T06:15:26;1.85;;;0.40;;
71475;SDS011;59286;59.274;17.974;2022-09-17T06:17:52;0.25;;;0.10;;
71475;SDS011;59286;59.274;17.974;2022-09-17T06:20:18;0.20;;;0.20;;
71475;SDS011;59286;59.274;17.974;2022-09-17T06:22:44;0.40;;;0.28;;
71475;SDS011;59286;59.274;17.974;2022-09-17T06:25:10;0.20;;;0.20;;
71475;SDS011;59286;59.274;17.974;2022-09-17T06:27:36;1.65;;;0.55;;
71475;SDS011;59286;59.274;17.974;2022-09-17T06:30:01;2.78;;;0.30;;
71475;SDS011;59286;59.274;17.974;2022-09-17T06:32:28;0.57;;;0.20;;
71475;SDS011;59286;59.274;17.974;2022-09-17T06:34:53;0.90;;;0.30;;
71475;SDS011;59286;59.274;17.974;2022-09-17T06:37:31;2.05;;;0.20;;
71475;SDS011;59286;59.274;17.974;2022-09-17T06:39:57;0.55;;;0.20;;
71475;SDS011;59286;59.274;17.974;2022-09-17T06:42:24;0.30;;;0.30;;
71475;SDS011;59286;59.274;17.974;2022-09-17T06:44:49;0.40;;;0.40;;
71475;SDS011;59286;59.274;17.974;2022-09-17T06:47:15;0.35;;;0.30;;
71475;SDS011;59286;59.274;17.974;2022-09-17T06:49:40;1.52;;;0.30;;
71475;SDS011;59286;59.274;17.974;2022-09-17T06:52:06;2.35;;;0.28;;
71475;SDS011;59286;59.274;17.974;2022-09-17T06:54:31;5.00;;;0.47;;
71475;SDS011;59286;59.274;17.974;2022-09-17T06:56:56;2.92;;;0.38;;
71475;SDS011;59286;59.274;17.974;2022-09-17T06:59:22;0.20;;;0.20;;
71475;SDS011;59286;59.274;17.974;2022-09-17T07:01:48;0.88;;;0.30;;
71475;SDS011;59286;59.274;17.974;2022-09-17T07:04:13;2.60;;;0.30;;
71475;SDS011;59286;59.274;17.974;2022-09-17T07:06:42;0.77;;;0.30;;
71475;SDS011;59286;59.274;17.974;2022-09-17T07:09:07;1.13;;;0.40;;
71475;SDS011;59286;59.274;17.974;2022-09-17T07:11:33;1.10;;;0.20;;
71475;SDS011;59286;59.274;17.974;2022-09-17T07:13:59;0.55;;;0.20;;
71475;SDS011;59286;59.274;17.974;2022-09-17T07:16:24;0.35;;;0.20;;
71475;SDS011;59286;59.274;17.974;2022-09-17T07:18:50;1.33;;;0.20;;
71475;SDS011;59286;59.274;17.974;2022-09-17T07:21:16;2.58;;;0.50;;
71475;SDS011;59286;59.274;17.974;2022-09-17T07:23:42;2.28;;;0.20;;
71475;SDS011;59286;59.274;17.974;2022-09-17T07:26:11;1.55;;;0.40;;
71475;SDS011;59286;59.274;17.974;2022-09-17T07:28:38;0.68;;;0.20;;
71475;SDS011;59286;59.274;17.974;2022-09-17T07:31:04;0.57;;;0.20;;
71475;SDS011;59286;59.274;17.974;2022-09-17T07:33:30;0.25;;;0.10;;
71475;SDS011;59286;59.274;17.974;2022-09-17T07:35:57;0.30;;;0.30;;
71475;SDS011;59286;59.274;17.974;2022-09-17T07:38:24;1.00;;;0.30;;
71475;SDS011;59286;59.274;17.974;2022-09-17T07:41:00;1.40;;;0.30;;
71475;SDS011;59286;59.274;17.974;2022-09-17T07:43:28;0.55;;;0.25;;
71475;SDS011;59286;59.274;17.974;2022-09-17T07:45:56;0.20;;;0.10;;
71475;SDS011;59286;59.274;17.974;2022-09-17T07:48:23;7.47;;;0.95;;
71475;SDS011;59286;59.274;17.974;2022-09-17T07:50:48;1.05;;;0.25;;
71475;SDS011;59286;59.274;17.974;2022-09-17T07:53:14;0.60;;;0.20;;
71475;SDS011;59286;59.274;17.974;2022-09-17T07:55:39;0.70;;;0.20;;
71475;SDS011;59286;59.274;17.974;2022-09-17T07:58:05;0.22;;;0.20;;
71475;SDS011;59286;59.274;17.974;2022-09-17T08:00:30;0.43;;;0.22;;
71475;SDS011;59286;59.274;17.974;2022-09-17T08:02:56;1.20;;;0.30;;
71475;SDS011;59286;59.274;17.974;2022-09-17T08:05:22;0.70;;;0.20;;
71475;SDS011;59286;59.274;17.974;2022-09-17T08:07:52;0.57;;;0.28;;
71475;SDS011;59286;59.274;17.974;2022-09-17T08:10:19;0.52;;;0.30;;
71475;SDS011;59286;59.274;17.974;2022-09-17T08:12:48;0.85;;;0.22;;
71475;SDS011;59286;59.274;17.974;2022-09-17T08:15:14;0.90;;;0.28;;
71475;SDS011;59286;59.274;17.974;2022-09-17T08:17:44;0.38;;;0.20;;
71475;SDS011;59286;59.274;17.974;2022-09-17T08:20:10;1.13;;;0.32;;
71475;SDS011;59286;59.274;17.974;2022-09-17T08:22:36;1.95;;;0.43;;
71475;SDS011;59286;59.274;17.974;2022-09-17T08:25:03;0.22;;;0.20;;
71475;SDS011;59286;59.274;17.974;2022-09-17T08:27:30;3.10;;;0.20;;
71475;SDS011;59286;59.274;17.974;2022-09-17T08:29:55;1.27;;;0.40;;
71475;SDS011;59286;59.274;17.974;2022-09-17T08:32:21;1.33;;;0.35;;
71475;SDS011;59286;59.274;17.974;2022-09-17T08:34:47;1.40;;;0.38;;
71475;SDS011;59286;59.274;17.974;2022-09-17T08:37:12;1.02;;;0.30;;
71475;SDS011;59286;59.274;17.974;2022-09-17T08:39:38;0.95;;;0.45;;
71475;SDS011;59286;59.274;17.974;2022-09-17T08:44:47;1.35;;;0.30;;
71475;SDS011;59286;59.274;17.974;2022-09-17T08:49:52;2.55;;;0.32;;
71475;SDS011;59286;59.274;17.974;2022-09-17T08:58:05;0.60;;;0.40;;
71475;SDS011;59286;59.274;17.974;2022-09-17T09:00:45;1.40;;;0.40;;
71475;SDS011;59286;59.274;17.974;2022-09-17T09:05:52;0.40;;;0.20;;
71475;SDS011;59286;59.274;17.974;2022-09-17T09:08:27;5.38;;;0.25;;
71475;SDS011;59286;59.274;17.974;2022-09-17T09:10:58;5.50;;;0.50;;
71475;SDS011;59286;59.274;17.974;2022-09-17T09:13:32;0.88;;;0.40;;
71475;SDS011;59286;59.274;17.974;2022-09-17T09:16:06;0.93;;;0.40;;
71475;SDS011;59286;59.274;17.974;2022-09-17T09:18:39;1.02;;;0.40;;
71475;SDS011;59286;59.274;17.974;2022-09-17T09:21:14;0.90;;;0.40;;
71475;SDS011;59286;59.274;17.974;2022-09-17T09:23:54;0.40;;;0.25;;
71475;SDS011;59286;59.274;17.974;2022-09-17T09:34:23;0.63;;;0.30;;
71475;SDS011;59286;59.274;17.974;2022-09-17T09:36:52;1.80;;;0.30;;
71475;SDS011;59286;59.274;17.974;2022-09-17T09:39:37;1.65;;;0.40;;
71475;SDS011;59286;59.274;17.974;2022-09-17T09:44:49;0.30;;;0.30;;
71475;SDS011;59286;59.274;17.974;2022-09-17T09:47:24;0.93;;;0.30;;
71475;SDS011;59286;59.274;17.974;2022-09-17T09:56:00;1.00;;;0.32;;
71475;SDS011;59286;59.274;17.974;2022-09-17T09:58:34;0.65;;;0.30;;
71475;SDS011;59286;59.274;17.974;2022-09-17T10:01:03;1.10;;;0.20;;
71475;SDS011;59286;59.274;17.974;2022-09-17T10:03:39;1.30;;;0.20;;
71475;SDS011;59286;59.274;17.974;2022-09-17T10:08:36;0.57;;;0.20;;
71475;SDS011;59286;59.274;17.974;2022-09-17T10:13:44;1.88;;;0.30;;
71475;SDS011;59286;59.274;17.974;2022-09-17T10:16:16;2.05;;;0.20;;
71475;SDS011;59286;59.274;17.974;2022-09-17T10:21:33;1.15;;;0.35;;
71475;SDS011;59286;59.274;17.974;2022-09-17T10:24:01;1.95;;;0.25;;
71475;SDS011;59286;59.274;17.974;2022-09-17T10:26:32;0.95;;;0.30;;
71475;SDS011;59286;59.274;17.974;2022-09-17T10:31:51;0.68;;;0.20;;
71475;SDS011;59286;59.274;17.974;2022-09-17T10:34:24;1.42;;;0.20;;
71475;SDS011;59286;59.274;17.974;2022-09-17T10:36:51;1.05;;;0.20;;
71475;SDS011;59286;59.274;17.974;2022-09-17T10:39:40;1.88;;;0.77;;
71475;SDS011;59286;59.274;17.974;2022-09-17T10:44:36;2.80;;;0.30;;
71475;SDS011;59286;59.274;17.974;2022-09-17T10:47:09;0.60;;;0.30;;
71475;SDS011;59286;59.274;17.974;2022-09-17T10:49:39;0.95;;;0.40;;
71475;SDS011;59286;59.274;17.974;2022-09-17T10:52:09;1.95;;;0.30;;
71475;SDS011;59286;59.274;17.974;2022-09-17T10:57:56;0.45;;;0.22;;
71475;SDS011;59286;59.274;17.974;2022-09-17T11:03:34;1.05;;;0.20;;
71475;SDS011;59286;59.274;17.974;2022-09-17T11:08:38;0.55;;;0.10;;
71475;SDS011;59286;59.274;17.974;2022-09-17T11:14:09;4.18;;;0.20;;
71475;SDS011;59286;59.274;17.974;2022-09-17T11:16:38;0.98;;;0.30;;
71475;SDS011;59286;59.274;17.974;2022-09-17T11:19:22;0.85;;;0.20;;
71475;SDS011;59286;59.274;17.974;2022-09-17T11:27:47;0.82;;;0.20;;
71475;SDS011;59286;59.274;17.974;2022-09-17T11:30:14;1.27;;;0.30;;
71475;SDS011;59286;59.274;17.974;2022-09-17T11:38:49;0.43;;;0.20;;
71475;SDS011;59286;59.274;17.974;2022-09-17T11:41:50;0.85;;;0.20;;
71475;SDS011;59286;59.274;17.974;2022-09-17T11:44:15;0.65;;;0.20;;
71475;SDS011;59286;59.274;17.974;2022-09-17T11:46:45;1.85;;;0.40;;
71475;SDS011;59286;59.274;17.974;2022-09-17T11:57:18;0.85;;;0.20;;
71475;SDS011;59286;59.274;17.974;2022-09-17T12:00:03;0.45;;;0.40;;
71475;SDS011;59286;59.274;17.974;2022-09-17T12:05:26;0.40;;;0.20;;
71475;SDS011;59286;59.274;17.974;2022-09-17T12:13:48;0.93;;;0.30;;
71475;SDS011;59286;59.274;17.974;2022-09-17T12:19:21;0.82;;;0.38;;
71475;SDS011;59286;59.274;17.974;2022-09-17T12:21:53;1.75;;;0.30;;
71475;SDS011;59286;59.274;17.974;2022-09-17T12:24:25;0.90;;;0.10;;
71475;SDS011;59286;59.274;17.974;2022-09-17T12:27:04;0.20;;;0.20;;
71475;SDS011;59286;59.274;17.974;2022-09-17T12:32:28;2.45;;;0.30;;
71475;SDS011;59286;59.274;17.974;2022-09-17T12:57:30;0.68;;;0.20;;
71475;SDS011;59286;59.274;17.974;2022-09-17T13:00:17;1.98;;;0.13;;
71475;SDS011;59286;59.274;17.974;2022-09-17T13:05:33;0.63;;;0.20;;
71475;SDS011;59286;59.274;17.974;2022-09-17T13:18:42;0.45;;;0.30;;
71475;SDS011;59286;59.274;17.974;2022-09-17T13:24:13;3.08;;;0.50;;
71475;SDS011;59286;59.274;17.974;2022-09-17T13:26:43;1.13;;;0.50;;
71475;SDS011;59286;59.274;17.974;2022-09-17T13:29:10;1.00;;;0.40;;
71475;SDS011;59286;59.274;17.974;2022-09-17T13:34:03;2.03;;;0.43;;
71475;SDS011;59286;59.274;17.974;2022-09-17T13:36:53;2.08;;;0.32;;
71475;SDS011;59286;59.274;17.974;2022-09-17T13:42:01;2.28;;;0.30;;
71475;SDS011;59286;59.274;17.974;2022-09-17T13:44:33;2.85;;;0.40;;
71475;SDS011;59286;59.274;17.974;2022-09-17T13:47:34;0.77;;;0.40;;
71475;SDS011;59286;59.274;17.974;2022-09-17T13:49:58;2.70;;;0.50;;
71475;SDS011;59286;59.274;17.974;2022-09-17T13:52:34;2.42;;;0.60;;
71475;SDS011;59286;59.274;17.974;2022-09-17T13:55:02;0.40;;;0.40;;
71475;SDS011;59286;59.274;17.974;2022-09-17T13:57:29;1.33;;;0.30;;
71475;SDS011;59286;59.274;17.974;2022-09-17T13:59:57;0.50;;;0.30;;
71475;SDS011;59286;59.274;17.974;2022-09-17T14:08:10;1.23;;;0.60;;
71475;SDS011;59286;59.274;17.974;2022-09-17T14:10:41;1.10;;;0.45;;
71475;SDS011;59286;59.274;17.974;2022-09-17T14:21:39;2.20;;;0.73;;
71475;SDS011;59286;59.274;17.974;2022-09-17T14:24:21;1.70;;;0.70;;
71475;SDS011;59286;59.274;17.974;2022-09-17T14:29:24;1.02;;;0.70;;
71475;SDS011;59286;59.274;17.974;2022-09-17T14:32:05;1.05;;;0.73;;
71475;SDS011;59286;59.274;17.974;2022-09-17T14:34:40;0.88;;;0.60;;
71475;SDS011;59286;59.274;17.974;2022-09-17T14:37:08;1.65;;;0.90;;
71475;SDS011;59286;59.274;17.974;2022-09-17T14:39:37;1.15;;;0.98;;
71475;SDS011;59286;59.274;17.974;2022-09-17T14:42:04;1.08;;;1.00;;
71475;SDS011;59286;59.274;17.974;2022-09-17T14:44:38;1.15;;;0.60;;
71475;SDS011;59286;59.274;17.974;2022-09-17T14:47:14;2.42;;;0.90;;
71475;SDS011;59286;59.274;17.974;2022-09-17T14:49:42;1.48;;;0.75;;
71475;SDS011;59286;59.274;17.974;2022-09-17T14:57:38;2.58;;;0.95;;
71475;SDS011;59286;59.274;17.974;2022-09-17T15:00:04;2.15;;;0.90;;
71475;SDS011;59286;59.274;17.974;2022-09-17T15:02:38;3.60;;;0.77;;
71475;SDS011;59286;59.274;17.974;2022-09-17T15:05:17;1.00;;;0.90;;
71475;SDS011;59286;59.274;17.974;2022-09-17T15:07:45;0.60;;;0.60;;
71475;SDS011;59286;59.274;17.974;2022-09-17T15:10:15;1.85;;;0.90;;
71475;SDS011;59286;59.274;17.974;2022-09-17T15:12:44;1.48;;;0.80;;
71475;SDS011;59286;59.274;17.974;2022-09-17T15:15:17;1.60;;;0.90;;
71475;SDS011;59286;59.274;17.974;2022-09-17T15:17:45;2.25;;;0.65;;
71475;SDS011;59286;59.274;17.974;2022-09-17T15:20:14;1.48;;;1.05;;
71475;SDS011;59286;59.274;17.974;2022-09-17T15:22:43;1.95;;;1.38;;
71475;SDS011;59286;59.274;17.974;2022-09-17T15:25:16;3.95;;;1.40;;
71475;SDS011;59286;59.274;17.974;2022-09-17T15:27:50;5.10;;;1.98;;
71475;SDS011;59286;59.274;17.974;2022-09-17T15:30:20;1.90;;;1.25;;
71475;SDS011;59286;59.274;17.974;2022-09-17T15:32:48;2.47;;;1.30;;
71475;SDS011;59286;59.274;17.974;2022-09-17T15:35:25;2.80;;;1.35;;
71475;SDS011;59286;59.274;17.974;2022-09-17T15:37:56;2.50;;;0.90;;
71475;SDS011;59286;59.274;17.974;2022-09-17T15:42:54;1.45;;;1.10;;
71475;SDS011;59286;59.274;17.974;2022-09-17T15:45:27;2.28;;;1.30;;
71475;SDS011;59286;59.274;17.974;2022-09-17T15:47:58;4.10;;;1.90;;
71475;SDS011;59286;59.274;17.974;2022-09-17T15:50:29;2.78;;;2.10;;
71475;SDS011;59286;59.274;17.974;2022-09-17T15:55:40;2.78;;;2.00;;
71475;SDS011;59286;59.274;17.974;2022-09-17T15:58:24;3.00;;;2.20;;
71475;SDS011;59286;59.274;17.974;2022-09-17T16:08:41;7.68;;;2.58;;
71475;SDS011;59286;59.274;17.974;2022-09-17T16:11:07;5.22;;;2.45;;
71475;SDS011;59286;59.274;17.974;2022-09-17T16:13:33;4.22;;;2.25;;
71475;SDS011;59286;59.274;17.974;2022-09-17T16:15:58;5.95;;;3.17;;
71475;SDS011;59286;59.274;17.974;2022-09-17T16:18:24;3.13;;;2.30;;
71475;SDS011;59286;59.274;17.974;2022-09-17T16:20:50;3.63;;;2.15;;
71475;SDS011;59286;59.274;17.974;2022-09-17T16:23:15;2.28;;;1.73;;
71475;SDS011;59286;59.274;17.974;2022-09-17T16:25:40;3.15;;;1.77;;
71475;SDS011;59286;59.274;17.974;2022-09-17T16:28:11;2.10;;;1.38;;
71475;SDS011;59286;59.274;17.974;2022-09-17T16:30:39;2.20;;;1.50;;
71475;SDS011;59286;59.274;17.974;2022-09-17T16:33:09;2.35;;;1.50;;
71475;SDS011;59286;59.274;17.974;2022-09-17T16:35:35;2.03;;;1.60;;
71475;SDS011;59286;59.274;17.974;2022-09-17T16:38:02;1.85;;;1.48;;
71475;SDS011;59286;59.274;17.974;2022-09-17T16:40:27;2.47;;;1.63;;
71475;SDS011;59286;59.274;17.974;2022-09-17T16:42:53;1.80;;;1.38;;
71475;SDS011;59286;59.274;17.974;2022-09-17T16:45:18;3.03;;;1.80;;
71475;SDS011;59286;59.274;17.974;2022-09-17T16:47:44;2.83;;;1.60;;
71475;SDS011;59286;59.274;17.974;2022-09-17T16:50:11;4.45;;;2.38;;
71475;SDS011;59286;59.274;17.974;2022-09-17T16:52:38;5.22;;;2.17;;
71475;SDS011;59286;59.274;17.974;2022-09-17T16:55:04;2.65;;;2.00;;
71475;SDS011;59286;59.274;17.974;2022-09-17T16:57:31;4.85;;;1.67;;
71475;SDS011;59286;59.274;17.974;2022-09-17T16:59:56;4.28;;;2.50;;
71475;SDS011;59286;59.274;17.974;2022-09-17T17:02:22;6.88;;;2.33;;
71475;SDS011;59286;59.274;17.974;2022-09-17T17:04:47;3.10;;;2.35;;
71475;SDS011;59286;59.274;17.974;2022-09-17T17:07:13;2.95;;;1.70;;
71475;SDS011;59286;59.274;17.974;2022-09-17T17:09:38;4.00;;;2.20;;
71475;SDS011;59286;59.274;17.974;2022-09-17T17:12:04;3.47;;;2.30;;
71475;SDS011;59286;59.274;17.974;2022-09-17T17:14:30;3.10;;;2.35;;
71475;SDS011;59286;59.274;17.974;2022-09-17T17:16:55;2.30;;;2.10;;
71475;SDS011;59286;59.274;17.974;2022-09-17T17:19:21;3.28;;;2.65;;
71475;SDS011;59286;59.274;17.974;2022-09-17T17:21:49;3.88;;;3.47;;
71475;SDS011;59286;59.274;17.974;2022-09-17T17:24:15;3.42;;;2.70;;
71475;SDS011;59286;59.274;17.974;2022-09-17T17:26:41;2.60;;;2.38;;
71475;SDS011;59286;59.274;17.974;2022-09-17T17:29:06;3.30;;;2.55;;
71475;SDS011;59286;59.274;17.974;2022-09-17T17:31:33;3.83;;;3.40;;
71475;SDS011;59286;59.274;17.974;2022-09-17T17:33:59;3.85;;;3.50;;
71475;SDS011;59286;59.274;17.974;2022-09-17T17:36:27;2.53;;;2.33;;
71475;SDS011;59286;59.274;17.974;2022-09-17T17:38:56;4.70;;;2.80;;
71475;SDS011;59286;59.274;17.974;2022-09-17T17:41:21;3.45;;;3.00;;
71475;SDS011;59286;59.274;17.974;2022-09-17T17:43:51;2.53;;;2.30;;
71475;SDS011;59286;59.274;17.974;2022-09-17T17:46:17;3.42;;;2.35;;
71475;SDS011;59286;59.274;17.974;2022-09-17T17:48:42;5.60;;;2.90;;
71475;SDS011;59286;59.274;17.974;2022-09-17T17:51:08;3.97;;;2.60;;
71475;SDS011;59286;59.274;17.974;2022-09-17T17:53:35;4.82;;;3.40;;
71475;SDS011;59286;59.274;17.974;2022-09-17T17:56:02;4.63;;;3.17;;
71475;SDS011;59286;59.274;17.974;2022-09-17T17:58:30;5.03;;;3.40;;
71475;SDS011;59286;59.274;17.974;2022-09-17T18:00:55;4.68;;;3.20;;
71475;SDS011;59286;59.274;17.974;2022-09-17T18:03:21;4.35;;;2.88;;
71475;SDS011;59286;59.274;17.974;2022-09-17T18:05:52;3.97;;;3.05;;
71475;SDS011;59286;59.274;17.974;2022-09-17T18:08:20;5.95;;;3.97;;
71475;SDS011;59286;59.274;17.974;2022-09-17T18:10:54;6.38;;;4.30;;